createdAt,value
2022-11-30T06:16:31.761Z,1014.32
2022-11-30T06:26:31.733Z,1014.31
2022-11-30T06:36:35.764Z,1014.32
2022-11-30T06:46:31.758Z,1014.52
2022-11-30T06:56:31.827Z,1014.45
2022-11-30T07:06:31.765Z,1014.51
2022-11-30T07:16:31.819Z,1014.57
2022-11-30T07:26:31.934Z,1014.59
2022-11-30T07:36:31.975Z,1014.60
2022-11-30T07:46:31.820Z,1014.73
2022-11-30T07:56:31.937Z,1014.76
2022-11-30T08:06:31.833Z,1014.69
2022-11-30T08:16:32.096Z,1014.59
2022-11-30T08:26:31.789Z,1014.66
2022-11-30T08:36:31.965Z,1014.71
2022-11-30T08:46:51.552Z,1014.80
2022-11-30T08:56:32.090Z,1014.86
2022-11-30T09:06:31.975Z,1015.00
2022-11-30T09:16:32.010Z,1015.07
2022-11-30T09:26:32.077Z,1015.16
2022-11-30T09:36:32.149Z,1015.16
2022-11-30T09:46:32.038Z,1014.89
2022-11-30T09:56:31.858Z,1014.96
2022-11-30T10:06:32.040Z,1014.87
2022-11-30T10:16:32.068Z,1014.83
2022-11-30T10:26:31.959Z,1014.81
2022-11-30T10:36:32.027Z,1014.72
2022-11-30T10:46:32.204Z,1014.69
2022-11-30T10:56:32.067Z,1014.70
2022-11-30T11:06:32.152Z,1014.63
2022-11-30T11:16:32.121Z,1014.75
2022-11-30T11:26:32.039Z,1014.79
2022-11-30T11:36:31.999Z,1014.86
2022-11-30T11:46:32.289Z,1014.84
2022-11-30T11:56:31.927Z,1014.75
2022-11-30T12:06:32.092Z,1014.74
2022-11-30T12:16:32.269Z,1014.77
2022-11-30T12:26:32.014Z,1014.84
2022-11-30T12:36:32.174Z,1014.80
2022-11-30T12:46:32.073Z,1014.85
2022-11-30T12:56:32.205Z,1014.88
2022-11-30T13:06:31.974Z,1014.79
2022-11-30T13:16:32.116Z,1014.81
2022-11-30T13:26:32.158Z,1014.92
2022-11-30T13:36:32.157Z,1014.86
2022-11-30T13:46:32.180Z,1014.81
2022-11-30T13:56:31.985Z,1014.77
2022-11-30T14:06:32.070Z,1014.72
2022-11-30T14:16:32.177Z,1014.73
2022-11-30T14:26:31.930Z,1014.83
2022-11-30T14:36:32.172Z,1014.95
2022-11-30T14:46:32.115Z,1014.89
2022-11-30T14:56:32.076Z,1015.02
2022-11-30T15:06:32.159Z,1015.09
2022-11-30T15:16:32.011Z,1015.14
2022-11-30T15:26:32.380Z,1015.08
2022-11-30T15:36:33.498Z,1015.04
2022-11-30T15:46:32.377Z,1015.10
2022-11-30T15:56:32.178Z,1015.03
2022-11-30T16:06:32.224Z,1015.19
2022-11-30T16:16:32.305Z,1015.31
2022-11-30T16:36:32.055Z,1015.33
2022-11-30T16:46:32.405Z,1015.47
2022-11-30T16:56:32.243Z,1015.49
2022-11-30T17:06:32.199Z,1015.58
2022-11-30T17:16:32.067Z,1015.49
2022-11-30T17:26:32.438Z,1015.71
2022-11-30T17:36:32.372Z,1015.71
2022-11-30T17:46:32.177Z,1015.70
2022-11-30T17:56:32.249Z,1015.83
2022-11-30T18:06:32.402Z,1015.90
2022-11-30T18:16:32.312Z,1016.03
2022-11-30T18:26:32.276Z,1016.12
2022-11-30T18:36:32.470Z,1016.19
2022-11-30T18:46:32.743Z,1016.25
2022-11-30T18:56:32.626Z,1016.38
2022-11-30T19:06:32.885Z,1016.36
2022-11-30T19:16:32.907Z,1016.48
